x

West Sea Otter (46204) Wave Buoy

9:00am - Wed 1st Jul 2015 All times are PDT. -7 hours from GMT.

  • Sig Wave height 5.9ft
  • Peak Period 7s
  • Wind
    22mph, 27mph gusts
  • Sea Temp 59°f
  • Air Temp 58°f
  • Sea Pressure 1022.8mb
  • West Sea Otter
  • West Sea Otter

More Historic Weather Station data

Upgrade to MSW Pro to gain access to the past 30 days of data for over 8000 Wavebouys and Weather Stations around the globe.

Join Pro

Comparision Forecast

View Surf forecast
   
Wed 07/01 9:00am 6ft 7s 22 27 mph 1022.8mb 59f 58f
8:00am 6.5ft 7s 20 25 mph 1023mb 59f 58f
6:00am 5.5ft 6s 20 27 mph 1023.1mb 59f 58f
5:00am 5ft 6s 25 29 mph 1022.9mb 59f 58f
4:00am 4.5ft 5s 25
mph
1023.1mb 59f 58f
3:00am 4.5ft 5s 20 22 mph 1023.5mb 59f 59f
2:00am 4.5ft 5s 22 25 mph 1023.9mb 60f 59f
12:00am 4.5ft 5s 20 25 mph 1023.9mb 60f 60f
Tue 06/30 10:00pm 4.5ft 5s 18 22 mph 1024.4mb 60f 59f
8:00pm 4.5ft 6s 16 18 mph 1024.7mb 60f 60f
7:00pm 4.5ft 7s 16 20 mph 1025mb 60f 60f
6:00pm 5ft 6s 16 20 mph 1025.1mb 60f 60f
5:00pm 5ft 6s 18 20 mph 1025.4mb 60f 59f
3:00pm 5ft 6s 18 22 mph 1025.2mb 60f 59f
2:00pm 5.5ft 6s 18 22 mph 1025.3mb 60f 59f
1:00pm 6ft 6s 20 25 mph 1025mb 60f 59f
11:00am 6ft 6s 20 25 mph 1024.4mb 60f 59f
10:00am  -   -  20
mph
1024.2mb - 59f
8:00am 6ft 6s 20 25 mph 1023.3mb 60f 59f
7:00am 6ft 7s 22 27 mph 1023mb 60f 59f
5:00am 4ft 15s 18 22 mph 1022mb 60f 60f
3:00am 3ft 15s 18 20 mph 1020.9mb 61f 60f
1:00am 3ft 16s 11 13 mph 1020.7mb 61f 61f
12:00am 3.5ft 5s 9 11 mph 1020.3mb 61f 61f
Mon 06/29 10:00pm 3.5ft 15s 13 16 mph 1019.8mb 61f 60f
9:00pm 3.5ft 8s 13 16 mph 1019.6mb 61f 60f
8:00pm 3.5ft 16s 13 18 mph 1019.4mb 61f 59f
6:00pm 3ft 8s 13 16 mph 1019.2mb 62f 60f
5:00pm 2.5ft 8s 13 16 mph 1019.1mb 62f 61f
4:00pm 2.5ft 8s 11 13 mph 1019mb 62f 61f
3:00pm 2.5ft 17s 13 16 mph 1019mb 62f 61f
2:00pm 2.5ft 9s 11 13 mph 1018.4mb 61f 61f
1:00pm 3ft 8s 9 11 mph 1018.2mb 61f 60f
12:00pm 3ft 16s 11
mph
1017.7mb 61f 60f
11:00am 3ft 8s 9 11 mph 1017.4mb 60f 60f
10:00am 3ft 16s 11 13 mph 1017.1mb 60f 59f
9:00am 3ft 16s 16 20 mph 1016.8mb 60f 59f
8:00am 2.5ft 8s 16 18 mph 1016.6mb 60f 60f
4:00am 2.5ft 8s 9 11 mph 1016.1mb 60f 60f
2:00am 2.5ft 8s 13 16 mph 1015.6mb 60f 60f
1:00am 2.5ft 8s 13
mph
1015.2mb 60f 60f
12:00am 2.5ft 9s 13
mph
1015mb 60f 61f
Sun 06/28 11:00pm 3ft 9s 16 18 mph 1014.8mb 60f 60f
9:00pm 3ft 9s 9 11 mph 1014.9mb 61f 61f
8:00pm 3.5ft 8s 13 16 mph 1015.1mb 61f 61f
7:00pm 3ft 8s 11 13 mph 1015.5mb 61f 61f
6:00pm 3.5ft 8s 13 16 mph 1015.9mb 61f 61f
5:00pm 3.5ft 8s 13 16 mph 1016.6mb 61f 61f
4:00pm 3.5ft 8s 13 16 mph 1016.9mb 61f 61f
3:00pm 3ft 9s 16 18 mph 1016.4mb 60f 61f
2:00pm 3.5ft 8s 13 16 mph 1017.1mb 60f 61f
1:00pm 3.5ft 8s 13 16 mph 1017.4mb 60f 60f
12:00pm 3.5ft 8s 13
mph
1017.6mb 60f 60f
11:00am 3.5ft 9s 13 16 mph 1017.4mb 60f 60f
10:00am 3.5ft 8s 11 13 mph 1017.4mb 59f 60f
9:00am 3.5ft 9s 11 13 mph 1017.7mb 59f 60f
8:00am 3.5ft 9s 11 13 mph 1017.8mb 59f 60f
7:00am 3.5ft 9s 9 11 mph 1018mb 59f 60f
5:00am 3.5ft 10s 9 11 mph 1018.1mb 59f 59f
3:00am 3.5ft 9s 11 13 mph 1018.4mb 59f 59f
2:00am 3.5ft 10s 13 16 mph 1018.3mb 59f 59f
1:00am 3.5ft 10s 13
mph
1018.6mb 59f 59f
12:00am 4ft 10s 13 16 mph 1018.6mb 59f 59f
Sat 06/27 10:00pm 3.5ft 9s 13 16 mph 1019mb 59f 59f
9:00pm 3.5ft 8s 16 18 mph 1019mb 59f 60f
8:00pm 3.5ft 8s 13
mph
1019.7mb 59f 60f
7:00pm 3ft 8s 13 16 mph 1019.7mb 60f 60f
6:00pm 3ft 8s 13 16 mph 1020.2mb 60f 60f